createdAt,value
2023-02-11T00:06:26.639Z,98445.77
2023-02-11T00:17:31.309Z,98455.08
2023-02-11T00:28:46.999Z,98471.45
2023-02-11T00:40:01.582Z,98466.01
2023-02-11T00:51:26.329Z,98454.76
2023-02-11T01:02:44.177Z,98430.10
2023-02-11T01:13:48.750Z,98412.44
2023-02-11T01:24:56.288Z,98391.17
2023-02-11T01:36:01.160Z,98374.23
2023-02-11T01:47:25.995Z,98350.52
2023-02-11T01:58:10.304Z,98318.13
2023-02-11T02:09:17.490Z,98307.23
2023-02-11T02:20:39.972Z,98310.38
2023-02-11T02:31:47.965Z,98316.21
2023-02-11T02:43:12.830Z,98280.38
2023-02-11T02:54:28.920Z,98273.86
2023-02-11T03:05:42.435Z,98281.67
2023-02-11T03:16:52.182Z,98284.27
2023-02-11T03:28:22.410Z,98282.55
2023-02-11T03:39:22.735Z,98269.89
2023-02-11T03:50:29.898Z,98239.59
2023-02-11T04:01:44.449Z,98187.35
2023-02-11T04:12:31.508Z,98159.31
2023-02-11T04:23:56.603Z,98130.00
2023-02-11T04:35:21.225Z,98109.98
2023-02-11T04:46:25.788Z,98074.17
2023-02-11T04:57:45.104Z,98060.21
2023-02-11T05:09:08.506Z,98040.55
2023-02-11T05:20:33.153Z,98046.98
2023-02-11T05:31:20.534Z,98030.88
2023-02-11T05:42:25.146Z,98043.66
2023-02-11T05:53:29.746Z,98047.72
2023-02-11T06:04:44.547Z,98032.64
2023-02-11T06:15:53.904Z,98018.79
2023-02-11T06:26:43.614Z,98003.23
2023-02-11T06:37:19.054Z,98013.08
2023-02-11T06:48:13.104Z,98006.52
2023-02-11T06:59:17.780Z,97984.97
2023-02-11T07:10:41.795Z,97961.72
2023-02-11T07:21:57.447Z,97952.00
2023-02-11T07:32:30.720Z,97949.52
2023-02-11T07:43:55.534Z,97935.77
2023-02-11T07:54:46.318Z,97956.49
2023-02-11T08:05:38.692Z,97959.06
2023-02-11T08:16:04.960Z,97926.91
2023-02-11T08:27:30.007Z,97931.13
2023-02-11T08:38:24.626Z,97920.02
2023-02-11T08:49:43.068Z,97917.60
2023-02-11T09:00:19.197Z,97904.73
2023-02-11T09:10:53.656Z,97919.83
2023-02-11T09:21:42.647Z,97941.81
2023-02-11T09:32:25.680Z,97946.17
2023-02-11T09:43:05.598Z,97934.08
2023-02-11T09:53:44.389Z,97914.66
2023-02-11T10:04:49.233Z,97895.93
2023-02-11T10:15:33.542Z,97894.02
2023-02-11T10:25:51.130Z,97884.09
2023-02-11T10:36:45.781Z,97886.02
2023-02-11T10:47:17.615Z,97859.17
2023-02-11T10:58:06.171Z,97815.27
2023-02-11T11:08:11.048Z,97792.92
2023-02-11T11:18:55.080Z,97787.42
2023-02-11T11:29:16.491Z,97759.40
2023-02-11T11:40:12.123Z,97732.09
2023-02-11T11:50:57.784Z,97692.50
2023-02-11T12:02:08.596Z,97705.95
2023-02-11T12:13:39.051Z,97711.27
2023-02-11T12:25:19.074Z,97746.29
2023-02-11T12:36:27.280Z,97741.98
2023-02-11T12:47:45.290Z,97750.79
2023-02-11T12:58:29.659Z,97753.18
2023-02-11T13:09:22.453Z,97754.89
2023-02-11T13:20:02.421Z,97722.95
2023-02-11T13:30:57.922Z,97689.79
2023-02-11T13:41:44.347Z,97686.57
2023-02-11T13:53:03.041Z,97684.29
2023-02-11T14:04:29.588Z,97677.40
2023-02-11T14:15:26.665Z,97629.79
2023-02-11T14:26:29.819Z,97593.38
2023-02-11T14:37:50.775Z,97638.98
2023-02-11T14:48:51.384Z,97674.91
2023-02-11T15:00:18.681Z,97691.80
2023-02-11T15:11:44.723Z,97714.88
2023-02-11T15:23:10.915Z,97705.87
2023-02-11T15:34:05.011Z,97708.52
2023-02-11T15:45:32.508Z,97710.65
2023-02-11T15:56:58.337Z,97727.70
2023-02-11T16:08:19.753Z,97734.16
2023-02-11T16:19:47.167Z,97745.00
2023-02-11T16:31:18.809Z,97748.88
2023-02-11T16:42:19.209Z,97758.99
2023-02-11T16:53:45.256Z,97769.06
2023-02-11T17:04:50.331Z,97773.66
2023-02-11T17:16:09.548Z,97781.54
2023-02-11T17:27:35.889Z,97783.34
2023-02-11T17:39:02.171Z,97787.77
2023-02-11T17:50:17.845Z,97790.04
2023-02-11T18:01:43.795Z,97799.66
2023-02-11T18:12:55.037Z,97803.25
2023-02-11T18:24:13.196Z,97801.55
2023-02-11T18:35:39.169Z,97795.80
2023-02-11T18:46:46.157Z,97814.98
2023-02-11T18:58:14.850Z,97809.81
2023-02-11T19:09:41.504Z,97817.88
2023-02-11T19:21:09.874Z,97836.66
2023-02-11T19:32:29.285Z,97832.48
2023-02-11T19:43:46.852Z,97832.67
2023-02-11T19:55:13.520Z,97835.83
2023-02-11T20:06:49.595Z,97839.39
2023-02-11T20:18:17.129Z,97827.48
2023-02-11T20:29:27.582Z,97836.67
2023-02-11T20:40:56.938Z,97845.20
2023-02-11T20:52:23.544Z,97838.73
2023-02-11T21:03:56.018Z,97838.39
2023-02-11T21:15:23.780Z,97845.23
2023-02-11T21:26:56.411Z,97867.08
2023-02-11T21:37:54.946Z,97869.86
2023-02-11T21:49:08.967Z,97883.11
2023-02-11T22:00:34.084Z,97879.96
2023-02-11T22:12:04.814Z,97879.19
2023-02-11T22:23:19.694Z,97900.33
2023-02-11T22:34:44.522Z,97915.05
2023-02-11T22:46:09.545Z,97932.67
2023-02-11T22:57:34.241Z,97941.98
2023-02-11T23:08:59.160Z,97943.14
2023-02-11T23:20:23.870Z,97950.68
2023-02-11T23:32:01.323Z,97953.10
2023-02-11T23:43:26.838Z,97951.65
2023-02-11T23:54:38.511Z,97968.82
